Time;durP1;ratioP1;P1;durP2;ratioP2;P2;SDS_P1;SDS_P2;PMS_P1;PMS_P2;Temp;Humidity;BMP_temperature;BMP_pressure;BME280_temperature;BME280_humidity;BME280_pressure;Samples;Min_cycle;Max_cycle;Signal;HPM_P1;HPM_P2
2022/06/16 00:00:52;;;;;;;7.20;4.40;;;;;;;19.83;100.00;-24368.72;4979563;28;20290;-63
2022/06/16 00:03:18;;;;;;;5.78;4.03;;;;;;;19.83;100.00;-24368.88;4977534;28;20227;-64
2022/06/16 00:05:44;;;;;;;7.25;4.60;;;;;;;19.79;100.00;-24367.63;4979405;28;20174;-62
2022/06/16 00:08:13;;;;;;;12.48;4.93;;;;;;;19.72;100.00;-24365.69;4978506;28;20279;-64
2022/06/16 00:11:25;;;;;;;7.13;4.85;;;;;;;19.75;100.00;-24366.50;4979832;28;20303;-64
2022/06/16 00:13:28;;;;;;;6.10;4.28;;;;;;;19.78;100.00;-24367.34;4968999;28;20200;-63
2022/06/16 00:15:54;;;;;;;7.63;4.30;;;;;;;19.73;100.00;-24365.94;4982245;28;20259;-62
2022/06/16 00:18:19;;;;;;;6.82;4.60;;;;;;;19.23;100.00;-24352.31;4980093;28;20656;-65
2022/06/16 00:20:45;;;;;;;5.43;3.92;;;;;;;19.57;100.00;-24361.50;4981523;28;20213;-62
2022/06/16 00:23:10;;;;;;;6.32;4.18;;;;;;;19.60;100.00;-24362.47;4981701;28;20251;-62
2022/06/16 00:25:36;;;;;;;5.57;3.80;;;;;;;19.88;100.00;-24369.97;4978885;28;20188;-63
2022/06/16 00:28:01;;;;;;;5.55;3.90;;;;;;;19.40;100.00;-24356.91;4977694;28;20212;-65
2022/06/16 00:30:27;;;;;;;6.30;4.43;;;;;;;19.71;100.00;-24365.53;4977601;28;20647;-64
2022/06/16 00:32:52;;;;;;;6.43;3.90;;;;;;;19.37;100.00;-24356.06;4978852;28;20180;-62
2022/06/16 00:35:17;;;;;;;5.75;3.42;;;;;;;19.44;100.00;-24357.88;4976927;28;20185;-64
2022/06/16 00:37:43;;;;;;;6.38;3.72;;;;;;;19.67;100.00;-24364.28;4978829;28;20173;-64
2022/06/16 00:40:09;;;;;;;6.22;3.80;;;;;;;19.38;100.00;-24356.34;4977387;28;20215;-62
2022/06/16 00:42:36;;;;;;;5.53;3.60;;;;;;;19.67;100.00;-24364.28;4982832;28;20177;-65
2022/06/16 00:45:02;;;;;;;5.32;3.90;;;;;;;19.44;100.00;-24358.03;4981647;28;20581;-63
2022/06/16 00:47:30;;;;;;;7.07;3.70;;;;;;;19.30;100.00;-24354.28;4981027;28;20224;-62
2022/06/16 00:50:05;;;;;;;5.13;3.30;;;;;;;19.58;100.00;-24361.78;4990398;28;20211;-62
2022/06/16 00:52:32;;;;;;;4.45;3.55;;;;;;;19.28;100.00;-24353.56;4981439;28;20207;-63
2022/06/16 00:55:10;;;;;;;6.10;3.80;;;;;;;19.49;100.00;-24359.41;4981540;28;20228;-64
2022/06/16 00:57:46;;;;;;;4.75;3.30;;;;;;;19.46;100.00;-24358.44;4983540;28;20635;-65
2022/06/16 01:02:47;;;;;;;6.93;3.75;;;;;;;19.60;100.00;-24362.47;4982646;28;20266;-65
2022/06/16 01:05:13;;;;;;;4.57;3.08;;;;;;;19.73;100.00;-24365.94;4980631;28;20323;-65
2022/06/16 01:07:41;;;;;;;5.88;3.08;;;;;;;19.62;100.00;-24362.91;4983358;28;20181;-63
2022/06/16 01:10:09;;;;;;;4.80;3.40;;;;;;;19.31;100.00;-24354.53;4986197;28;20236;-65
2022/06/16 01:15:57;;;;;;;4.25;3.10;;;;;;;19.72;100.00;-24365.81;4985390;28;20240;-65
2022/06/16 01:18:37;;;;;;;5.20;3.00;;;;;;;19.71;100.00;-24365.53;4983393;28;20181;-62
2022/06/16 01:21:28;;;;;;;5.50;3.17;;;;;;;19.75;100.00;-24366.50;4984465;28;20259;-63
2022/06/16 01:24:11;;;;;;;4.60;3.22;;;;;;;19.82;100.00;-24368.59;4988636;28;20240;-61
2022/06/16 01:26:51;;;;;;;5.00;3.30;;;;;;;19.86;100.00;-24369.56;4982704;28;20280;-65
2022/06/16 01:29:17;;;;;;;4.78;3.13;;;;;;;19.87;100.00;-24369.84;4980105;28;20201;-63
2022/06/16 01:31:57;;;;;;;4.40;3.25;;;;;;;19.95;100.00;-24372.06;4981945;28;20560;-61
2022/06/16 01:34:47;;;;;;;5.90;3.53;;;;;;;19.96;100.00;-24372.34;4979777;28;20524;-63
2022/06/16 01:37:12;;;;;;;7.15;3.17;;;;;;;20.04;100.00;-24374.56;4979392;28;20221;-64
2022/06/16 01:39:51;;;;;;;4.75;3.00;;;;;;;20.08;100.00;-24375.69;4982490;28;20212;-64
2022/06/16 01:42:28;;;;;;;5.90;3.15;;;;;;;19.98;100.00;-24372.91;4979696;28;20312;-64
2022/06/16 01:45:05;;;;;;;4.40;2.92;;;;;;;19.83;100.00;-24368.72;4985228;28;20268;-61
2022/06/16 01:47:32;;;;;;;5.03;3.08;;;;;;;20.15;100.00;-24377.63;4985543;28;20176;-64
2022/06/16 01:50:05;;;;;;;5.43;2.97;;;;;;;20.15;100.00;-24377.47;4986591;28;20357;-64
2022/06/16 01:53:01;;;;;;;4.38;3.00;;;;;;;20.22;100.00;-24379.56;4982511;28;20180;-65
2022/06/16 01:55:32;;;;;;;5.00;3.28;;;;;;;19.99;100.00;-24373.19;4977963;28;20287;-64
2022/06/16 01:58:04;;;;;;;5.03;3.45;;;;;;;19.86;100.00;-24369.56;4980716;28;20235;-65
2022/06/16 02:00:33;;;;;;;4.50;3.25;;;;;;;20.22;100.00;-24379.44;4984668;28;20267;-65
2022/06/16 02:03:12;;;;;;;5.38;3.55;;;;;;;19.89;100.00;-24370.41;4979182;28;20730;-63
2022/06/16 02:05:53;;;;;;;4.72;3.10;;;;;;;20.16;100.00;-24377.75;4982506;28;20187;-61
2022/06/16 02:08:25;;;;;;;4.75;3.40;;;;;;;20.03;100.00;-24374.16;4979420;28;20177;-63
2022/06/16 02:11:07;;;;;;;5.97;3.90;;;;;;;20.02;100.00;-24373.88;4983904;28;20218;-64
2022/06/16 02:13:39;;;;;;;5.95;3.70;;;;;;;19.99;100.00;-24373.03;4982361;28;20192;-65
2022/06/16 02:16:19;;;;;;;5.68;3.53;;;;;;;19.76;100.00;-24366.94;4981565;28;20224;-63
2022/06/16 02:18:45;;;;;;;4.32;3.30;;;;;;;19.60;100.00;-24362.34;4984009;28;20181;-66
2022/06/16 02:21:17;;;;;;;5.18;3.67;;;;;;;19.62;100.00;-24362.91;4980182;28;20276;-65
2022/06/16 02:27:04;;;;;;;5.55;3.40;;;;;;;19.95;100.00;-24372.06;4981587;28;20275;-64
2022/06/16 02:29:33;;;;;;;6.25;3.33;;;;;;;19.89;100.00;-24370.25;4981230;28;20657;-62
2022/06/16 02:32:14;;;;;;;8.30;3.70;;;;;;;19.91;100.00;-24370.81;4981485;28;20177;-65
2022/06/16 02:34:57;;;;;;;4.90;3.33;;;;;;;19.85;100.00;-24369.28;4984608;28;20204;-64
2022/06/16 02:37:26;;;;;;;4.05;3.17;;;;;;;19.93;100.00;-24371.38;4987369;28;20263;-62
2022/06/16 02:40:15;;;;;;;5.50;3.58;;;;;;;20.02;100.00;-24373.88;4980822;28;20212;-63
2022/06/16 02:42:59;;;;;;;5.80;3.50;;;;;;;19.92;100.00;-24371.22;4984048;28;20181;-64
2022/06/16 02:45:47;;;;;;;4.20;3.17;;;;;;;19.81;100.00;-24368.31;4983654;28;20263;-62
2022/06/16 02:48:34;;;;;;;5.10;3.20;;;;;;;19.69;100.00;-24364.97;4978423;28;20192;-65
2022/06/16 02:51:34;;;;;;;5.13;3.42;;;;;;;19.80;100.00;-24367.91;4982187;28;20660;-65
2022/06/16 02:54:10;;;;;;;4.93;3.03;;;;;;;19.56;100.00;-24361.38;4981658;28;20185;-63
2022/06/16 02:57:01;;;;;;;4.90;2.80;;;;;;;19.74;100.00;-24366.22;4981636;28;20265;-64
2022/06/16 02:59:41;;;;;;;5.38;3.40;;;;;;;19.64;100.00;-24363.44;4978148;28;20203;-62
2022/06/16 03:02:13;;;;;;;4.50;2.92;;;;;;;19.76;100.00;-24366.78;4978692;28;20247;-64
2022/06/16 03:04:42;;;;;;;3.90;2.85;;;;;;;18.65;100.00;-24336.31;4984009;28;20200;-63
2022/06/16 03:07:11;;;;;;;4.47;3.20;;;;;;;19.54;100.00;-24360.66;4987357;28;20656;-62
2022/06/16 03:09:37;;;;;;;6.90;3.20;;;;;;;19.23;100.00;-24352.19;4980716;28;20734;-62
2022/06/16 03:12:04;;;;;;;7.25;3.20;;;;;;;19.64;100.00;-24363.59;4986125;28;20185;-62
2022/06/16 03:14:30;;;;;;;3.83;2.67;;;;;;;19.42;100.00;-24357.59;4976863;28;20680;-62
2022/06/16 03:16:57;;;;;;;4.32;3.05;;;;;;;19.35;100.00;-24355.66;4975162;28;20182;-62
2022/06/16 03:19:22;;;;;;;4.57;2.92;;;;;;;19.52;100.00;-24360.25;4973202;28;20276;-63
2022/06/16 03:21:48;;;;;;;4.38;3.58;;;;;;;19.49;100.00;-24359.41;4974905;28;20653;-63
2022/06/16 03:24:14;;;;;;;4.38;2.60;;;;;;;19.47;100.00;-24358.84;4974539;28;21066;-62
2022/06/16 03:26:39;;;;;;;4.68;2.97;;;;;;;19.57;100.00;-24361.66;4979880;28;20276;-62
2022/06/16 03:29:05;;;;;;;5.70;3.13;;;;;;;19.51;100.00;-24359.84;4975808;28;20200;-63
2022/06/16 03:31:30;;;;;;;6.38;3.13;;;;;;;19.73;100.00;-24365.94;4974765;28;20677;-62
2022/06/16 03:33:56;;;;;;;4.97;3.05;;;;;;;19.49;100.00;-24359.41;4976550;28;20182;-64
2022/06/16 03:36:21;;;;;;;5.28;3.30;;;;;;;19.78;100.00;-24367.47;4972782;28;20178;-63
2022/06/16 03:38:47;;;;;;;5.75;3.88;;;;;;;19.37;100.00;-24356.22;4975770;28;20184;-63
2022/06/16 03:41:13;;;;;;;5.95;3.38;;;;;;;19.73;100.00;-24365.94;4973583;28;20299;-62
2022/06/16 03:43:39;;;;;;;4.80;3.30;;;;;;;19.45;100.00;-24358.16;4974856;28;20299;-63
2022/06/16 03:46:05;;;;;;;4.00;3.17;;;;;;;19.60;100.00;-24362.34;4974080;28;20177;-62
2022/06/16 03:48:32;;;;;;;7.05;3.80;;;;;;;19.57;100.00;-24361.50;4975818;28;20185;-62
2022/06/16 03:50:57;;;;;;;4.90;3.03;;;;;;;19.18;100.00;-24350.94;4974333;28;20185;-63
2022/06/16 03:53:24;;;;;;;5.18;3.42;;;;;;;19.63;100.00;-24363.16;4974480;28;20200;-63
2022/06/16 03:55:51;;;;;;;4.80;3.20;;;;;;;19.69;100.00;-24364.84;4975734;28;20189;-61
2022/06/16 03:58:17;;;;;;;5.70;3.22;;;;;;;19.55;100.00;-24360.94;4973143;28;20627;-62
2022/06/16 04:00:42;;;;;;;6.55;3.80;;;;;;;19.67;100.00;-24364.28;4982965;28;20199;-62
2022/06/16 04:05:54;;;;;;;5.55;3.50;;;;;;;19.87;100.00;-24369.84;4974684;28;20192;-61
2022/06/16 04:08:20;;;;;;;6.15;4.00;;;;;;;19.66;100.00;-24364.00;4980251;28;20644;-62
2022/06/16 04:10:46;;;;;;;4.75;3.65;;;;;;;19.91;100.00;-24370.97;4972557;28;20219;-62
2022/06/16 04:13:14;;;;;;;6.88;3.55;;;;;;;19.65;100.00;-24363.72;4973791;28;20197;-63
2022/06/16 04:15:39;;;;;;;6.28;3.38;;;;;;;19.97;100.00;-24372.50;4974118;28;20896;-62
2022/06/16 04:18:05;;;;;;;5.65;3.83;;;;;;;19.91;100.00;-24370.81;4973723;28;20192;-63
2022/06/16 04:20:31;;;;;;;7.00;3.58;;;;;;;19.83;100.00;-24368.72;4971691;28;20201;-62
2022/06/16 04:22:57;;;;;;;7.13;4.20;;;;;;;20.03;100.00;-24374.16;4975196;28;20219;-62
2022/06/16 04:25:30;;;;;;;8.02;5.45;;;;;;;19.79;100.00;-24367.63;4973410;28;20657;-62
2022/06/16 04:28:05;;;;;;;7.82;4.47;;;;;;;19.82;100.00;-24368.59;4974486;28;20669;-63
2022/06/16 04:30:32;;;;;;;6.38;4.05;;;;;;;19.87;100.00;-24369.72;4973634;28;21235;-63
2022/06/16 04:32:58;;;;;;;5.55;4.25;;;;;;;19.98;100.00;-24372.75;4977119;28;20701;-62
2022/06/16 04:35:26;;;;;;;6.20;4.07;;;;;;;19.91;100.00;-24370.81;4977353;28;20300;-63
2022/06/16 04:37:51;;;;;;;5.68;4.00;;;;;;;19.74;100.00;-24366.38;4980587;28;20315;-63
2022/06/16 04:40:17;;;;;;;6.80;4.50;;;;;;;19.76;100.00;-24366.94;4979431;28;20229;-63
2022/06/16 04:42:43;;;;;;;7.95;4.50;;;;;;;19.36;100.00;-24355.81;4977373;28;20184;-63
2022/06/16 04:45:10;;;;;;;8.80;5.82;;;;;;;19.29;100.00;-24353.84;4979048;28;20316;-62
2022/06/16 04:47:37;;;;;;;7.18;4.80;;;;;;;19.76;100.00;-24366.94;4978883;28;20178;-62
2022/06/16 04:50:04;;;;;;;8.25;5.00;;;;;;;20.05;100.00;-24374.72;4987746;28;20193;-63
2022/06/16 04:52:29;;;;;;;11.82;6.03;;;;;;;20.08;100.00;-24375.69;4978481;28;20215;-62
2022/06/16 04:54:55;;;;;;;8.88;5.53;;;;;;;20.12;100.00;-24376.66;4978870;28;20177;-63
2022/06/16 04:57:22;;;;;;;7.93;5.20;;;;;;;20.03;100.00;-24374.28;4976161;28;20192;-62
2022/06/16 04:59:47;;;;;;;9.35;5.55;;;;;;;19.89;100.00;-24370.25;4979511;28;20182;-62
2022/06/16 05:02:13;;;;;;;11.48;5.85;;;;;;;20.23;100.00;-24379.72;4979162;28;20668;-62
2022/06/16 05:04:39;;;;;;;10.25;5.78;;;;;;;20.41;100.00;-24384.72;4978767;28;20205;-63
2022/06/16 05:07:06;;;;;;;9.40;5.13;;;;;;;20.32;100.00;-24382.06;4983028;28;20665;-64
2022/06/16 05:09:31;;;;;;;7.80;5.05;;;;;;;20.16;100.00;-24377.75;4980136;28;20221;-62
2022/06/16 05:11:57;;;;;;;6.75;5.00;;;;;;;20.54;100.00;-24388.31;4979877;28;20193;-64
2022/06/16 05:14:23;;;;;;;10.57;5.15;;;;;;;20.67;100.00;-24391.78;4979690;28;20218;-63
2022/06/16 05:16:49;;;;;;;7.47;5.03;;;;;;;20.67;100.00;-24391.78;4977383;28;20563;-62
2022/06/16 05:19:15;;;;;;;11.55;5.50;;;;;;;20.74;100.00;-24393.72;4975059;28;20193;-62
2022/06/16 05:21:40;;;;;;;9.40;5.45;;;;;;;20.01;100.00;-24373.72;4978562;28;20273;-64
2022/06/16 05:24:06;;;;;;;8.55;6.20;;;;;;;20.88;100.00;-24397.63;4987539;28;20192;-62
2022/06/16 05:26:32;;;;;;;10.40;6.03;;;;;;;20.84;100.00;-24396.38;4977726;28;20184;-63
2022/06/16 05:28:57;;;;;;;14.98;6.50;;;;;;;21.30;100.00;-24409.00;4982414;28;20628;-63
2022/06/16 05:31:23;;;;;;;11.90;6.50;;;;;;;21.42;100.00;-24412.31;4980526;28;20189;-63
2022/06/16 05:33:49;;;;;;;9.88;6.05;;;;;;;21.56;100.00;-24416.34;4980723;28;20181;-63
2022/06/16 05:36:21;;;;;;;12.05;6.30;;;;;;;21.69;100.00;-24419.66;4977897;28;20192;-63
2022/06/16 05:38:55;;;;;;;8.73;5.82;;;;;;;21.76;100.00;-24421.75;4981321;28;20185;-61
2022/06/16 05:41:21;;;;;;;11.52;5.40;;;;;;;21.81;100.00;-24422.97;4980718;28;20197;-62
2022/06/16 05:43:47;;;;;;;9.25;5.40;;;;;;;21.80;100.00;-24422.72;4982577;28;20192;-61
2022/06/16 05:46:18;;;;;;;8.27;5.03;;;;;;;21.41;100.00;-24412.03;4981943;28;20191;-61
2022/06/16 05:48:44;;;;;;;6.93;4.65;;;;;;;21.56;100.00;-24416.34;4981574;28;20266;-62
2022/06/16 05:51:12;;;;;;;7.43;5.22;;;;;;;21.79;100.00;-24422.56;4981124;28;20282;-63
2022/06/16 05:53:38;;;;;;;6.75;4.80;;;;;;;21.99;100.00;-24428.13;4983044;28;20192;-62
2022/06/16 05:56:04;;;;;;;8.40;5.20;;;;;;;22.25;100.00;-24435.03;4980768;28;20271;-61
2022/06/16 05:58:29;;;;;;;8.85;5.60;;;;;;;22.60;100.00;-24444.56;4982711;28;20229;-62
2022/06/16 06:00:55;;;;;;;9.95;5.68;;;;;;;23.00;100.00;-24455.50;4981021;28;20308;-61
2022/06/16 06:03:20;;;;;;;8.98;5.63;;;;;;;22.82;100.00;-24450.66;4980661;28;20181;-65
2022/06/16 06:05:46;;;;;;;8.48;5.25;;;;;;;23.35;100.00;-24465.19;4980802;28;20312;-63
2022/06/16 06:16:29;;;;;;;7.93;5.18;;;;;;;24.25;100.00;-24489.59;4980229;28;20569;-63
2022/06/16 06:18:56;;;;;;;8.18;5.65;;;;;;;24.25;100.00;-24489.75;4982544;28;20300;-63
2022/06/16 06:24:15;;;;;;;9.05;5.50;;;;;;;24.50;100.00;-24496.63;4944848;28;20566;-61
2022/06/16 06:26:40;;;;;;;10.80;6.15;;;;;;;24.42;100.00;-24494.44;4985059;28;20216;-62
2022/06/16 06:29:06;;;;;;;8.05;5.18;;;;;;;24.74;100.00;-24503.09;4994021;28;20541;-63
2022/06/16 06:31:31;;;;;;;10.93;5.85;;;;;;;25.02;100.00;-24510.81;4980465;28;20676;-62
2022/06/16 06:33:57;;;;;;;10.57;6.20;;;;;;;24.68;100.00;-24501.31;4981113;28;20553;-62
2022/06/16 06:36:22;;;;;;;8.75;5.43;;;;;;;24.80;100.00;-24504.63;4982736;28;20675;-63
2022/06/16 06:38:48;;;;;;;9.60;5.95;;;;;;;25.03;100.00;-24510.97;4979682;28;20180;-61
2022/06/16 06:41:14;;;;;;;15.70;7.50;;;;;;;24.57;100.00;-24498.41;4980697;28;20243;-63
2022/06/16 06:43:40;;;;;;;11.32;6.43;;;;;;;24.86;100.00;-24506.28;4981493;28;20187;-64
2022/06/16 06:46:06;;;;;;;11.93;6.68;;;;;;;24.65;100.00;-24500.75;4981387;28;20189;-63
2022/06/16 06:48:32;;;;;;;11.85;6.68;;;;;;;24.99;100.00;-24509.84;4979207;28;20276;-63
2022/06/16 06:50:57;;;;;;;14.27;7.68;;;;;;;25.00;100.00;-24510.28;4982332;28;20259;-63
2022/06/16 06:53:23;;;;;;;12.82;7.55;;;;;;;24.83;100.00;-24505.59;4979019;28;20255;-64
2022/06/16 06:55:48;;;;;;;14.95;7.53;;;;;;;24.86;100.00;-24506.28;4982452;28;20191;-64
2022/06/16 06:58:23;;;;;;;12.50;7.50;;;;;;;25.22;100.00;-24516.06;4979451;28;20193;-63
2022/06/16 07:00:51;;;;;;;12.32;7.78;;;;;;;25.22;100.00;-24516.19;4984225;28;20208;-65
2022/06/16 07:03:17;;;;;;;13.27;8.07;;;;;;;25.87;100.00;-24533.94;4979225;28;20185;-62
2022/06/16 07:05:43;;;;;;;14.20;7.68;;;;;;;26.59;100.00;-24553.31;4988096;28;20216;-63
2022/06/16 07:08:08;;;;;;;13.32;7.70;;;;;;;27.06;99.97;-24566.06;4981847;28;20275;-63
2022/06/16 07:10:34;;;;;;;15.65;8.63;;;;;;;27.14;97.96;-24568.28;4977218;28;20690;-63
2022/06/16 07:12:59;;;;;;;15.80;7.70;;;;;;;27.32;96.46;-24573.06;4986681;28;20253;-63
2022/06/16 07:15:25;;;;;;;12.32;7.80;;;;;;;27.71;96.29;-24583.75;4977689;28;20177;-63
2022/06/16 07:17:50;;;;;;;12.27;7.45;;;;;;;27.92;95.26;-24589.38;4980758;28;20185;-63
2022/06/16 07:20:17;;;;;;;12.25;8.45;;;;;;;27.98;94.23;-24591.16;4981757;28;20206;-63
2022/06/16 07:22:44;;;;;;;16.90;9.45;;;;;;;27.94;92.71;-24589.91;4980076;28;20626;-64
2022/06/16 07:25:10;;;;;;;16.77;9.60;;;;;;;27.97;91.94;-24590.75;4978961;28;20211;-65
2022/06/16 07:27:36;;;;;;;17.58;9.55;;;;;;;27.92;89.97;-24589.50;4979566;28;20653;-63
2022/06/16 07:30:13;;;;;;;18.15;9.60;;;;;;;27.66;91.06;-24582.38;4981032;28;20224;-62
2022/06/16 07:32:38;;;;;;;16.35;9.60;;;;;;;26.91;93.64;-24562.09;4977940;28;20267;-63
2022/06/16 07:35:04;;;;;;;17.20;9.40;;;;;;;27.12;95.24;-24567.72;4979586;28;20275;-64
2022/06/16 07:37:29;;;;;;;15.98;9.15;;;;;;;27.06;95.70;-24566.06;4980080;28;21986;-63
2022/06/16 07:39:55;;;;;;;20.35;9.60;;;;;;;26.47;99.78;-24550.16;4979754;28;20173;-62
2022/06/16 07:42:21;;;;;;;21.02;9.68;;;;;;;26.22;100.00;-24543.41;4980611;28;20188;-62
2022/06/16 07:44:46;;;;;;;16.73;9.77;;;;;;;25.70;100.00;-24529.25;4979197;28;20191;-63
2022/06/16 07:47:12;;;;;;;18.73;10.43;;;;;;;25.84;100.00;-24532.97;4982752;28;20208;-62
2022/06/16 07:49:37;;;;;;;18.75;10.02;;;;;;;25.58;100.00;-24525.81;4977837;28;20684;-62
2022/06/16 07:52:03;;;;;;;19.98;10.25;;;;;;;26.14;100.00;-24541.09;4978146;28;20682;-63
2022/06/16 07:54:29;;;;;;;18.65;10.48;;;;;;;26.25;100.00;-24544.25;4979060;28;20191;-63
2022/06/16 07:56:55;;;;;;;20.20;10.70;;;;;;;25.67;100.00;-24528.31;4977594;28;20272;-63
2022/06/16 07:59:21;;;;;;;17.50;9.88;;;;;;;26.25;100.00;-24544.13;4976506;28;20587;-61
2022/06/16 08:01:46;;;;;;;18.75;10.48;;;;;;;26.33;100.00;-24546.44;4978138;28;20196;-62
2022/06/16 08:04:12;;;;;;;16.17;10.07;;;;;;;27.14;99.53;-24568.28;4979206;28;20184;-63
2022/06/16 08:06:39;;;;;;;16.67;9.98;;;;;;;27.22;94.21;-24570.59;4979301;28;20180;-61
2022/06/16 08:09:07;;;;;;;25.27;10.18;;;;;;;26.30;99.06;-24545.63;4978388;28;20576;-63
2022/06/16 08:14:17;;;;;;;15.98;9.75;;;;;;;26.12;100.00;-24540.69;4979682;28;20188;-62
2022/06/16 08:16:42;;;;;;;17.88;10.32;;;;;;;26.46;100.00;-24549.75;4979281;28;20177;-63
2022/06/16 08:19:08;;;;;;;16.25;9.98;;;;;;;26.91;96.55;-24562.09;4979207;28;20664;-62
2022/06/16 08:21:34;;;;;;;16.48;10.02;;;;;;;27.07;98.80;-24566.47;4978390;28;20234;-62
2022/06/16 08:24:00;;;;;;;16.23;9.13;;;;;;;27.24;100.00;-24571.16;4978883;28;20200;-62
2022/06/16 08:26:26;;;;;;;16.88;9.77;;;;;;;27.15;98.60;-24568.69;4978006;28;20238;-62
2022/06/16 08:28:53;;;;;;;17.63;9.93;;;;;;;27.72;95.54;-24583.91;4977931;28;20232;-62
2022/06/16 08:31:21;;;;;;;16.58;9.27;;;;;;;27.92;92.80;-24589.38;4979166;28;20550;-63
2022/06/16 08:33:48;;;;;;;16.83;9.80;;;;;;;28.32;90.86;-24600.31;4980264;28;20258;-61
2022/06/16 08:36:14;;;;;;;19.40;10.25;;;;;;;28.28;92.42;-24599.22;4976738;28;20283;-61
2022/06/16 08:38:40;;;;;;;17.13;10.15;;;;;;;28.62;88.79;-24608.25;4981035;28;20264;-62
2022/06/16 08:41:12;;;;;;;18.00;10.57;;;;;;;28.00;90.98;-24591.69;4977796;28;20245;-62
2022/06/16 08:44:04;;;;;;;20.10;10.48;;;;;;;27.82;92.60;-24586.78;4979301;28;20181;-62
2022/06/16 08:46:51;;;;;;;17.48;9.95;;;;;;;27.39;95.41;-24574.97;4977772;28;20216;-62
2022/06/16 08:49:50;;;;;;;15.88;9.07;;;;;;;26.58;98.78;-24553.03;4981726;28;20204;-62
2022/06/16 08:52:35;;;;;;;15.85;9.80;;;;;;;26.63;98.04;-24554.41;4976731;28;20194;-62
2022/06/16 08:55:18;;;;;;;18.13;9.52;;;;;;;27.17;98.93;-24569.22;4977565;28;20275;-62
2022/06/16 08:57:44;;;;;;;17.13;10.23;;;;;;;27.31;98.27;-24572.94;4979969;28;20369;-63
2022/06/16 09:00:15;;;;;;;16.88;9.50;;;;;;;27.37;97.63;-24574.56;4979213;28;20708;-62
2022/06/16 09:02:53;;;;;;;14.85;9.45;;;;;;;27.84;92.30;-24587.31;4987683;28;20298;-61
2022/06/16 09:05:37;;;;;;;20.20;9.27;;;;;;;27.96;90.89;-24590.59;4980433;28;20648;-62
2022/06/16 09:08:05;;;;;;;16.60;9.40;;;;;;;27.92;89.35;-24589.38;4984332;28;20230;-63
2022/06/16 09:10:37;;;;;;;15.30;9.52;;;;;;;27.80;88.76;-24586.22;4982241;28;20212;-63
2022/06/16 09:13:05;;;;;;;14.75;9.77;;;;;;;28.24;86.30;-24598.00;4986408;28;20196;-63
2022/06/16 09:15:33;;;;;;;16.48;9.60;;;;;;;28.21;88.65;-24597.19;4985733;28;20300;-62
2022/06/16 09:18:29;;;;;;;17.45;9.48;;;;;;;27.89;86.55;-24588.56;4986934;28;20180;-63
2022/06/16 09:21:06;;;;;;;15.30;9.40;;;;;;;27.95;89.02;-24590.19;4980299;28;20197;-63
2022/06/16 09:23:53;;;;;;;18.08;9.95;;;;;;;27.58;95.63;-24580.19;4985017;28;20192;-62
2022/06/16 09:26:28;;;;;;;14.60;9.18;;;;;;;27.61;92.97;-24581.00;4984551;28;20196;-62
2022/06/16 09:29:41;;;;;;;15.70;8.90;;;;;;;27.55;91.45;-24579.38;4983635;28;20176;-62
2022/06/16 09:32:10;;;;;;;15.90;8.88;;;;;;;27.75;88.97;-24584.84;4981435;28;20185;-63
2022/06/16 09:34:45;;;;;;;16.73;10.13;;;;;;;26.64;92.64;-24554.69;4982671;28;20231;-63
2022/06/16 09:37:19;;;;;;;17.30;9.30;;;;;;;26.71;92.03;-24556.59;4980573;28;20184;-63
2022/06/16 09:39:53;;;;;;;15.55;9.52;;;;;;;26.50;93.73;-24550.97;4981163;28;20672;-62
2022/06/16 09:42:35;;;;;;;15.68;9.75;;;;;;;26.73;95.81;-24557.28;4981346;28;20266;-62
2022/06/16 09:45:07;;;;;;;17.10;9.73;;;;;;;26.68;96.50;-24555.91;4984923;28;20258;-62
2022/06/16 09:47:43;;;;;;;17.63;9.23;;;;;;;26.33;97.34;-24546.44;4981409;28;20239;-62
2022/06/16 09:50:29;;;;;;;16.02;9.55;;;;;;;25.93;96.63;-24535.44;4979973;28;20267;-63
2022/06/16 09:53:03;;;;;;;15.25;8.82;;;;;;;26.27;99.96;-24544.78;4981225;28;20177;-62
2022/06/16 09:55:39;;;;;;;15.57;8.80;;;;;;;26.56;97.83;-24552.47;4981596;28;20185;-62
2022/06/16 09:58:31;;;;;;;13.88;8.63;;;;;;;26.21;94.66;-24543.00;4980907;28;20180;-62
2022/06/16 10:01:01;;;;;;;13.77;8.93;;;;;;;26.77;95.62;-24558.25;4984574;28;20316;-63
2022/06/16 10:03:37;;;;;;;12.32;8.50;;;;;;;27.03;90.69;-24565.25;4979403;28;20176;-62
2022/06/16 10:06:09;;;;;;;11.80;7.88;;;;;;;27.78;88.43;-24585.53;4979415;28;20183;-63
2022/06/16 10:08:58;;;;;;;11.63;7.88;;;;;;;27.29;89.78;-24572.38;4982435;28;20219;-62
2022/06/16 10:11:35;;;;;;;13.32;8.05;;;;;;;27.09;90.06;-24567.03;4986823;28;20212;-63
2022/06/16 10:14:17;;;;;;;13.18;8.05;;;;;;;26.68;92.21;-24555.91;4983539;28;20588;-61
2022/06/16 10:16:48;;;;;;;16.08;9.23;;;;;;;26.86;94.35;-24560.59;4981114;28;20181;-63
2022/06/16 10:19:14;;;;;;;14.40;8.90;;;;;;;26.60;94.30;-24553.59;4981318;28;20188;-62
2022/06/16 10:21:39;;;;;;;10.10;7.50;;;;;;;26.12;100.00;-24540.69;4981561;28;20197;-64
2022/06/16 10:24:07;;;;;;;12.70;7.97;;;;;;;26.32;98.64;-24546.03;4982123;28;20208;-62
2022/06/16 10:26:34;;;;;;;12.77;8.43;;;;;;;26.41;97.43;-24548.50;4979840;28;20174;-63
2022/06/16 10:29:20;;;;;;;10.95;7.38;;;;;;;26.80;95.52;-24559.22;4978941;28;20183;-63
2022/06/16 10:31:48;;;;;;;10.27;6.60;;;;;;;27.05;92.27;-24565.81;4983542;28;20289;-63
2022/06/16 10:34:36;;;;;;;9.07;6.22;;;;;;;27.63;85.38;-24581.56;4981801;28;20196;-62
2022/06/16 10:37:07;;;;;;;12.30;7.05;;;;;;;27.67;87.97;-24582.81;4980286;28;20185;-61
2022/06/16 10:39:42;;;;;;;9.88;6.97;;;;;;;27.50;87.47;-24578.00;4980065;28;20271;-63
2022/06/16 10:42:27;;;;;;;10.27;6.65;;;;;;;27.23;86.34;-24570.88;4981290;28;20218;-62
2022/06/16 10:44:59;;;;;;;11.88;7.93;;;;;;;27.22;90.12;-24570.59;4984101;28;20180;-63
2022/06/16 10:47:33;;;;;;;12.52;7.03;;;;;;;27.17;86.47;-24569.09;4980002;28;20692;-63
2022/06/16 10:50:01;;;;;;;8.90;6.65;;;;;;;26.97;88.45;-24563.59;4979643;28;20176;-63
2022/06/16 10:52:34;;;;;;;11.13;6.75;;;;;;;27.58;89.23;-24580.19;4980379;28;20181;-63
2022/06/16 10:55:14;;;;;;;9.18;6.70;;;;;;;27.75;86.79;-24584.72;4979505;28;20215;-63
2022/06/16 10:57:44;;;;;;;10.05;6.63;;;;;;;27.91;84.57;-24589.09;4982610;28;20211;-63
2022/06/16 11:00:16;;;;;;;9.70;7.13;;;;;;;28.24;83.77;-24598.13;4986542;28;20244;-63
2022/06/16 11:03:15;;;;;;;8.27;6.63;;;;;;;27.88;85.83;-24588.41;4984782;28;20675;-62
2022/06/16 11:05:54;;;;;;;11.75;6.90;;;;;;;26.79;96.70;-24558.94;4981568;28;20268;-62
2022/06/16 11:08:23;;;;;;;11.60;7.28;;;;;;;26.45;93.15;-24549.59;4980057;28;20191;-63
2022/06/16 11:10:57;;;;;;;12.55;6.75;;;;;;;26.66;91.28;-24555.22;4985017;28;20718;-63
2022/06/16 11:13:34;;;;;;;12.10;7.13;;;;;;;27.10;91.68;-24567.31;4983577;28;20193;-63
2022/06/16 11:16:06;;;;;;;10.63;6.43;;;;;;;26.87;88.95;-24561.00;4981049;28;20176;-62
2022/06/16 11:18:33;;;;;;;8.80;6.55;;;;;;;27.21;84.74;-24570.19;4977832;28;20256;-62
2022/06/16 11:21:00;;;;;;;9.55;6.45;;;;;;;27.22;86.52;-24570.59;4977482;28;20402;-62
2022/06/16 11:23:41;;;;;;;9.23;6.68;;;;;;;27.76;85.12;-24585.13;4979522;28;20189;-62
2022/06/16 11:26:15;;;;;;;8.75;6.43;;;;;;;27.86;81.66;-24587.88;4978675;28;20181;-62
2022/06/16 11:28:47;;;;;;;11.95;7.65;;;;;;;28.11;82.70;-24594.59;4985246;28;20219;-62
2022/06/16 11:31:21;;;;;;;10.07;6.63;;;;;;;28.08;85.92;-24593.88;4983076;28;20177;-62
2022/06/16 11:34:07;;;;;;;10.27;6.68;;;;;;;27.97;84.36;-24590.88;4983830;28;20199;-62
2022/06/16 11:36:58;;;;;;;9.77;5.97;;;;;;;28.01;83.94;-24591.97;4984023;28;20570;-62
2022/06/16 11:39:53;;;;;;;9.20;6.82;;;;;;;28.20;85.61;-24597.03;4988798;28;20180;-63
2022/06/16 11:42:40;;;;;;;9.10;6.63;;;;;;;28.79;78.13;-24612.91;4978313;28;20219;-63
2022/06/16 11:45:14;;;;;;;9.32;5.97;;;;;;;28.19;81.01;-24596.63;4984230;28;20212;-63
2022/06/16 11:47:49;;;;;;;7.80;6.15;;;;;;;27.65;79.81;-24582.13;4979541;28;20295;-62
2022/06/16 11:50:33;;;;;;;11.48;6.78;;;;;;;27.38;82.96;-24574.72;4985398;28;20215;-62
2022/06/16 11:53:17;;;;;;;10.90;6.60;;;;;;;27.67;80.80;-24582.66;4977221;28;20265;-63
2022/06/16 11:56:10;;;;;;;9.93;7.57;;;;;;;28.09;82.67;-24594.16;4978519;28;20191;-62
2022/06/16 11:58:51;;;;;;;10.30;7.05;;;;;;;28.35;84.90;-24601.16;4983502;28;20173;-62
2022/06/16 12:01:46;;;;;;;9.80;6.65;;;;;;;28.92;78.58;-24616.59;4983118;28;20207;-62